»·PEaware :: SWA5479 KMDW-KSTL

SWA5479 :: KMDW-KSTL

FLIGHT INFORMATION

Flight Status: Arrived
Operator:
Southwest Airlines
More flights by this operator :: More flights under this callsign
Pilot: Drew L. (13237)
Aircraft: BOEING 737-800
(B738)
More flights by this aircraft type
Origin: KMDW Chicago-Midway
United States
Destination: KSTL Lambert-St Louis Intl
United States
More flights between these airports :: More routes between these airports
Route: BACEN BLOKR RBS AARCH2
File this flight plan on PilotEdge
Remarks: PBN / A1B1C1D1S1S2 DOF / 180512 REG / N806SB EET / KZKC0022 OPR / SWA PER / C RMK / TCAS SIMBRIEF
Altitude:
(Current/Filed)
28,000ft
Speed:
(Current/Filed)
476kts
Departed: 12-May-18 09:26 AM
Arrived: 12-May-18 10:14 AM
Distance/Time
Traveled:
218nm/0:47
Distance/Time
To Go:
Arrived

Flight Plot

Page will automatically refresh every two minutes.

Flight plan parsing failed; only flown route is shown


Map Options




Map Legend


Flown Route
Filed Route
Departure Airport
Arrival Airport
Navaid (VOR, NDB)
Fix

Horizontal Profiles

Position Reports

Time Latitude Longitude Heading Altitude Ground
Speed
12-May-18 09:07 41.786024 -87.746088 20 627ft 0kts
12-May-18 09:08 41.786024 -87.746089 20 628ft 0kts
12-May-18 09:09 41.786024 -87.746089 20 628ft 0kts
12-May-18 09:10 41.786024 -87.746089 20 628ft 0kts
12-May-18 09:11 41.786024 -87.746089 20 628ft 0kts
12-May-18 09:12 41.786024 -87.746089 20 628ft 0kts
12-May-18 09:13 41.786024 -87.746089 20 628ft 0kts
12-May-18 09:14 41.786024 -87.746089 20 628ft 0kts
12-May-18 09:15 41.786024 -87.746089 20 628ft 0kts
12-May-18 09:16 41.786024 -87.746089 20 628ft 0kts
12-May-18 09:17 41.786024 -87.746089 20 628ft 0kts
12-May-18 09:18 41.786024 -87.746089 20 628ft 0kts
12-May-18 09:19 41.785988 -87.746107 20 628ft 2kts
12-May-18 09:20 41.785428 -87.746393 20 628ft 2kts
12-May-18 09:21 41.784998 -87.746347 310 628ft 1kts
12-May-18 09:22 41.784975 -87.746314 314 628ft 0kts
12-May-18 09:23 41.785987 -87.747747 312 628ft 13kts
12-May-18 09:24 41.782502 -87.753059 224 628ft 32kts
12-May-18 09:25 41.779695 -87.758647 44 628ft 17kts
12-May-18 09:26 41.804894 -87.725097 56 1936ft 181kts
12-May-18 09:27 41.803000 -87.654195 100 4957ft 210kts
12-May-18 09:28 41.755330 -87.629906 219 8029ft 207kts
12-May-18 09:29 41.704009 -87.687727 225 9944ft 275kts
12-May-18 09:30 41.642886 -87.758517 224 12463ft 318kts
12-May-18 09:31 41.572424 -87.839765 224 15051ft 344kts
12-May-18 09:32 41.496802 -87.926677 224 16951ft 377kts
12-May-18 09:33 41.415962 -88.018688 222 19208ft 391kts
12-May-18 09:34 41.308810 -88.066327 200 21142ft 420kts
12-May-18 09:35 41.192845 -88.094360 191 23260ft 430kts
12-May-18 09:36 41.093941 -88.104563 192 24934ft 429kts
12-May-18 09:37 40.975502 -88.118241 190 26700ft 430kts
12-May-18 09:38 40.857229 -88.132261 190 27697ft 446kts
12-May-18 09:39 40.733666 -88.146969 190 28136ft 447kts
12-May-18 09:40 40.610252 -88.161722 190 28127ft 447kts
12-May-18 09:41 40.493029 -88.205301 204 28127ft 438kts
12-May-18 09:42 40.359633 -88.268672 204 28127ft 438kts
12-May-18 09:43 40.245092 -88.322825 204 28115ft 438kts
12-May-18 09:44 40.150134 -88.367545 204 28103ft 438kts
12-May-18 09:45 40.035435 -88.421358 204 28099ft 438kts
12-May-18 09:46 39.921021 -88.474802 204 28099ft 439kts
12-May-18 09:47 39.809951 -88.526357 204 28095ft 439kts
12-May-18 09:48 39.694940 -88.579751 204 28095ft 439kts
12-May-18 09:49 39.585642 -88.633840 216 28079ft 431kts
12-May-18 09:50 39.500883 -88.723414 224 28098ft 426kts
12-May-18 09:51 39.411640 -88.820512 224 27866ft 432kts
12-May-18 09:52 39.319528 -88.919819 223 25667ft 424kts
12-May-18 09:53 39.229513 -89.016431 222 23496ft 427kts
12-May-18 09:54 39.137906 -89.114406 221 21311ft 432kts
12-May-18 09:55 39.075816 -89.232931 253 19072ft 389kts
12-May-18 09:56 39.047587 -89.361328 254 16845ft 365kts
12-May-18 09:57 39.020268 -89.484050 253 15268ft 355kts
12-May-18 09:58 38.992613 -89.604931 249 13851ft 350kts
12-May-18 09:59 38.957285 -89.717981 247 12465ft 343kts
12-May-18 10:00 38.922575 -89.828099 246 11505ft 311kts
12-May-18 10:01 38.892696 -89.922617 246 10773ft 273kts
12-May-18 10:02 38.864493 -90.011485 246 10013ft 265kts
12-May-18 10:03 38.836211 -90.099776 246 9950ft 271kts
12-May-18 10:04 38.806840 -90.191168 247 8596ft 272kts
12-May-18 10:05 38.822891 -90.275296 296 8506ft 247kts
12-May-18 10:06 38.857419 -90.350007 297 7402ft 240kts
12-May-18 10:07 38.890616 -90.417741 298 6480ft 220kts
12-May-18 10:08 38.897326 -90.486285 239 5316ft 199kts
12-May-18 10:09 38.858660 -90.529335 198 3933ft 193kts
12-May-18 10:10 38.813691 -90.499353 129 2801ft 181kts
12-May-18 10:11 38.788944 -90.450493 125 1963ft 155kts
12-May-18 10:12 38.766095 -90.403693 125 1116ft 157kts
12-May-18 10:13 38.745346 -90.361817 122 612ft 66kts
12-May-18 10:14 38.740290 -90.356891 191 612ft 22kts
12-May-18 10:15 38.737802 -90.357664 157 612ft 0kts
12-May-18 10:16 38.752456 -90.376158 125 629ft 154kts
12-May-18 10:17 38.749572 -90.370323 126 612ft 140kts
12-May-18 10:18 38.743919 -90.358919 124 612ft 50kts
12-May-18 10:19 38.744957 -90.361010 122 612ft 57kts

Navigation Log

Ident Type
Flight plan parsing failed, navigation log unavailable